createdAt,value
2018-10-07T00:00:58.280Z,94913.75
2018-10-07T00:03:28.511Z,94915.31
2018-10-07T00:05:58.713Z,94910.89
2018-10-07T00:08:28.903Z,94909.45
2018-10-07T00:10:59.122Z,94904.52
2018-10-07T00:13:29.313Z,94905.78
2018-10-07T00:15:59.513Z,94903.20
2018-10-07T00:18:29.701Z,94904.88
2018-10-07T00:20:59.947Z,94899.81
2018-10-07T00:23:30.137Z,94898.38
2018-10-07T00:26:00.313Z,94898.20
2018-10-07T00:28:30.484Z,94893.14
2018-10-07T00:31:00.680Z,94885.89
2018-10-07T00:33:30.837Z,94888.78
2018-10-07T00:36:01.088Z,94891.99
2018-10-07T00:38:31.281Z,94887.41
2018-10-07T00:41:01.520Z,94886.63
2018-10-07T00:43:31.677Z,94887.05
2018-10-07T00:46:01.850Z,94886.80
2018-10-07T00:48:32.006Z,94886.33
2018-10-07T00:51:02.193Z,94877.66
2018-10-07T00:53:32.407Z,94884.31
2018-10-07T00:56:02.642Z,94885.67
2018-10-07T00:58:32.866Z,94885.29
2018-10-07T01:01:03.087Z,94889.81
2018-10-07T01:03:33.255Z,94885.09
2018-10-07T01:06:03.431Z,94887.20
2018-10-07T01:08:33.610Z,94885.09
2018-10-07T01:11:03.891Z,94883.59
2018-10-07T01:13:34.048Z,94882.28
2018-10-07T01:16:04.292Z,94887.05
2018-10-07T01:18:34.455Z,94889.78
2018-10-07T01:21:04.680Z,94894.19
2018-10-07T01:23:35.106Z,94893.77
2018-10-07T01:26:05.336Z,94894.78
2018-10-07T01:28:35.548Z,94895.97
2018-10-07T01:31:05.884Z,94897.28
2018-10-07T01:33:36.078Z,94896.06
2018-10-07T01:36:06.318Z,94895.28
2018-10-07T01:38:36.494Z,94895.13
2018-10-07T01:41:06.773Z,94893.03
2018-10-07T01:43:36.938Z,94891.92
2018-10-07T01:46:07.222Z,94893.19
2018-10-07T01:48:37.416Z,94897.22
2018-10-07T01:51:07.715Z,94892.54
2018-10-07T01:53:37.901Z,94899.20
2018-10-07T01:56:08.206Z,94897.10
2018-10-07T01:58:38.379Z,94899.58
2018-10-07T02:01:08.665Z,94895.63
2018-10-07T02:03:38.847Z,94900.03
2018-10-07T02:06:09.126Z,94898.25
2018-10-07T02:08:39.302Z,94898.90
2018-10-07T02:11:09.499Z,94891.86
2018-10-07T02:13:39.722Z,94893.82
2018-10-07T02:16:09.927Z,94893.64
2018-10-07T02:18:40.093Z,94895.63
2018-10-07T02:21:10.306Z,94898.41
2018-10-07T02:23:40.515Z,94901.84
2018-10-07T02:26:10.740Z,94899.58
2018-10-07T02:28:40.933Z,94905.56
2018-10-07T02:31:11.161Z,94905.57
2018-10-07T02:33:41.400Z,94907.42
2018-10-07T02:36:11.608Z,94907.42
2018-10-07T02:38:41.842Z,94911.69
2018-10-07T02:41:12.006Z,94913.88
2018-10-07T02:43:42.195Z,94912.70
2018-10-07T02:46:12.389Z,94916.86
2018-10-07T02:48:42.572Z,94913.28
2018-10-07T02:51:13.263Z,94912.45
2018-10-07T02:53:43.483Z,94914.28
2018-10-07T02:56:13.725Z,94910.26
2018-10-07T02:58:44.069Z,94910.61
2018-10-07T03:01:14.275Z,94914.84
2018-10-07T03:03:44.472Z,94915.28
2018-10-07T03:06:14.666Z,94916.59
2018-10-07T03:08:44.886Z,94913.49
2018-10-07T03:11:15.087Z,94915.98
2018-10-07T03:13:45.273Z,94913.36
2018-10-07T03:16:15.531Z,94912.88
2018-10-07T03:18:45.730Z,94913.88
2018-10-07T03:21:15.935Z,94920.08
2018-10-07T03:23:46.123Z,94916.42
2018-10-07T03:26:16.303Z,94920.73
2018-10-07T03:28:46.467Z,94917.42
2018-10-07T03:31:16.656Z,94919.08
2018-10-07T03:33:46.918Z,94922.21
2018-10-07T03:36:17.122Z,94923.48
2018-10-07T03:38:47.345Z,94924.28
2018-10-07T03:41:17.612Z,94924.45
2018-10-07T03:43:47.783Z,94927.69
2018-10-07T03:46:17.972Z,94925.67
2018-10-07T03:48:48.176Z,94928.82
2018-10-07T03:51:18.408Z,94932.58
2018-10-07T03:53:48.578Z,94936.06
2018-10-07T03:56:18.790Z,94939.02
2018-10-07T03:58:48.989Z,94943.48
2018-10-07T04:01:19.212Z,94938.47
2018-10-07T04:03:49.448Z,94940.55
2018-10-07T04:06:19.636Z,94939.16
2018-10-07T04:08:49.825Z,94946.27
2018-10-07T04:11:20.046Z,94946.78
2018-10-07T04:13:50.211Z,94942.83
2018-10-07T04:16:20.463Z,94952.89
2018-10-07T04:18:50.696Z,94948.00
2018-10-07T04:21:20.924Z,94947.27
2018-10-07T04:23:51.125Z,94946.41
2018-10-07T04:26:21.350Z,94945.27
2018-10-07T04:28:51.533Z,94948.85
2018-10-07T04:31:21.742Z,94952.50
2018-10-07T04:33:51.918Z,94950.16
2018-10-07T04:36:22.178Z,94953.91
2018-10-07T04:38:52.338Z,94961.77
2018-10-07T04:41:22.551Z,94968.19
2018-10-07T04:43:52.734Z,94967.22
2018-10-07T04:46:23.026Z,94966.84
2018-10-07T04:48:53.086Z,94972.77
2018-10-07T04:51:23.288Z,94972.84
2018-10-07T04:53:53.460Z,94971.46
2018-10-07T04:56:23.676Z,94975.55
2018-10-07T04:58:53.963Z,94980.17
2018-10-07T05:01:24.256Z,94979.25
2018-10-07T05:03:54.406Z,94975.42
2018-10-07T05:06:28.199Z,94981.25
2018-10-07T05:08:59.688Z,94975.11
2018-10-07T05:11:30.749Z,94978.42
2018-10-07T05:14:00.982Z,94987.09
2018-10-07T05:16:38.454Z,94981.48
2018-10-07T05:19:08.704Z,94981.77
2018-10-07T05:21:38.909Z,94986.90
2018-10-07T05:24:09.121Z,94982.97
2018-10-07T05:26:39.318Z,94979.93
2018-10-07T05:29:09.544Z,94987.61
2018-10-07T05:31:39.774Z,94986.93
2018-10-07T05:34:09.982Z,94993.75
2018-10-07T05:36:40.208Z,94994.92
2018-10-07T05:39:11.923Z,94997.52
2018-10-07T05:41:42.314Z,94997.89
2018-10-07T05:44:12.578Z,95002.30
2018-10-07T05:46:42.784Z,95010.13
2018-10-07T05:49:12.963Z,95015.14
2018-10-07T05:51:43.212Z,95013.94
2018-10-07T05:54:13.417Z,95015.70
2018-10-07T05:56:43.629Z,95019.95
2018-10-07T05:59:13.890Z,95017.95
2018-10-07T06:01:45.675Z,95021.53
2018-10-07T06:04:34.138Z,95030.42
2018-10-07T06:07:05.087Z,95036.80
2018-10-07T06:09:36.669Z,95035.45
2018-10-07T06:12:07.212Z,95041.87
2018-10-07T06:14:54.182Z,95042.69
2018-10-07T06:17:24.346Z,95049.72
2018-10-07T06:19:54.576Z,95052.37
2018-10-07T06:22:25.128Z,95059.23
2018-10-07T06:25:01.492Z,95051.14
2018-10-07T06:27:31.744Z,95058.83
2018-10-07T06:30:02.092Z,95059.48
2018-10-07T06:32:32.156Z,95068.34
2018-10-07T06:35:02.379Z,95065.89
2018-10-07T06:37:32.608Z,95073.23
2018-10-07T06:40:02.878Z,95079.33
2018-10-07T06:42:33.080Z,95077.52
2018-10-07T06:45:03.347Z,95085.83
2018-10-07T06:47:33.598Z,95081.81
2018-10-07T06:50:03.932Z,95086.29
2018-10-07T06:52:34.104Z,95089.49
2018-10-07T06:55:06.682Z,95092.67
2018-10-07T06:57:37.048Z,95099.19
2018-10-07T07:00:08.617Z,95093.20
2018-10-07T07:02:38.949Z,95098.24
2018-10-07T07:05:15.964Z,95103.77
2018-10-07T07:07:46.157Z,95109.18
2018-10-07T07:10:16.408Z,95108.89
2018-10-07T07:12:46.664Z,95112.31
2018-10-07T07:15:16.934Z,95110.17
2018-10-07T07:17:47.172Z,95115.25
2018-10-07T07:20:17.394Z,95117.70
2018-10-07T07:22:47.611Z,95122.94
2018-10-07T07:25:17.796Z,95123.87
2018-10-07T07:27:48.068Z,95127.36
2018-10-07T07:30:18.241Z,95129.66
2018-10-07T07:32:48.537Z,95130.14
2018-10-07T07:35:18.741Z,95138.80
2018-10-07T07:37:49.256Z,95141.62
2018-10-07T07:40:19.485Z,95139.29
2018-10-07T07:42:49.708Z,95144.84
2018-10-07T07:45:19.961Z,95145.64
2018-10-07T07:47:50.225Z,95149.40
2018-10-07T07:50:20.417Z,95146.78
2018-10-07T07:52:50.914Z,95154.30
2018-10-07T07:55:27.757Z,95152.99
2018-10-07T07:57:58.019Z,95161.14
2018-10-07T08:00:28.261Z,95163.73
2018-10-07T08:02:58.639Z,95160.70
2018-10-07T08:05:29.085Z,95160.17
2018-10-07T08:07:59.289Z,95164.62
2018-10-07T08:10:29.545Z,95163.91
2018-10-07T08:12:59.780Z,95168.45
2018-10-07T08:15:30.035Z,95166.02
2018-10-07T08:18:00.292Z,95171.09
2018-10-07T08:20:30.520Z,95177.53
2018-10-07T08:23:00.720Z,95175.33
2018-10-07T08:25:31.811Z,95173.53
2018-10-07T08:28:01.998Z,95176.86
2018-10-07T08:30:32.259Z,95170.58
2018-10-07T08:33:02.511Z,95172.78
2018-10-07T08:35:32.713Z,95174.58
2018-10-07T08:38:03.075Z,95170.70
2018-10-07T08:40:33.290Z,95170.53
2018-10-07T08:43:03.589Z,95173.32
2018-10-07T08:45:33.769Z,95170.75
2018-10-07T08:48:04.026Z,95173.98
2018-10-07T08:52:10.157Z,95178.99
2018-10-07T08:54:40.470Z,95175.72
2018-10-07T08:57:10.835Z,95170.15
2018-10-07T08:59:41.124Z,95177.31
2018-10-07T09:02:11.375Z,95176.25
2018-10-07T09:04:41.654Z,95169.31
2018-10-07T09:07:11.890Z,95176.79
2018-10-07T09:09:42.145Z,95178.27
2018-10-07T09:12:12.387Z,95186.75
2018-10-07T09:14:42.641Z,95183.29
2018-10-07T09:17:12.831Z,95188.54
2018-10-07T09:19:43.135Z,95185.16
2018-10-07T09:22:13.483Z,95189.91
2018-10-07T09:24:43.740Z,95193.59
2018-10-07T09:27:14.118Z,95197.58
2018-10-07T09:29:44.954Z,95200.92
2018-10-07T09:32:15.312Z,95193.94
2018-10-07T09:34:45.485Z,95201.31
2018-10-07T09:37:15.685Z,95198.09
2018-10-07T09:39:45.986Z,95209.70
2018-10-07T09:42:16.243Z,95205.81
2018-10-07T09:44:46.459Z,95211.56
2018-10-07T09:47:16.713Z,95206.91
2018-10-07T09:49:46.977Z,95206.61
2018-10-07T09:52:17.247Z,95207.09
2018-10-07T09:54:47.547Z,95208.36
2018-10-07T09:57:17.870Z,95203.61
2018-10-07T09:59:48.113Z,95200.70
2018-10-07T10:02:18.462Z,95204.72
2018-10-07T10:04:48.705Z,95202.91
2018-10-07T10:07:18.961Z,95199.08
2018-10-07T10:09:49.215Z,95194.52
2018-10-07T10:12:19.469Z,95200.80
2018-10-07T10:14:49.799Z,95207.44
2018-10-07T10:17:23.020Z,95211.81
2018-10-07T10:20:01.435Z,95217.41
2018-10-07T10:22:55.021Z,95213.05
2018-10-07T10:25:32.067Z,95210.23
2018-10-07T10:28:17.873Z,95213.44
2018-10-07T10:31:24.779Z,95212.13
2018-10-07T10:36:13.428Z,95215.31
2018-10-07T10:38:57.010Z,95221.95
2018-10-07T10:41:34.511Z,95217.81
2018-10-07T10:44:16.680Z,95213.83
2018-10-07T10:47:49.755Z,95217.21
2018-10-07T10:50:45.332Z,95224.28
2018-10-07T10:53:26.459Z,95227.78
2018-10-07T10:56:22.460Z,95221.53
2018-10-07T10:59:10.620Z,95217.69
2018-10-07T11:02:01.764Z,95225.13
2018-10-07T11:04:43.687Z,95225.67
2018-10-07T11:09:27.956Z,95228.80
2018-10-07T11:12:09.208Z,95227.29
2018-10-07T11:15:59.298Z,95229.28
2018-10-07T11:18:59.964Z,95225.05
2018-10-07T11:22:19.930Z,95223.07
2018-10-07T11:25:02.813Z,95224.82
2018-10-07T11:28:44.257Z,95226.93
2018-10-07T11:31:26.200Z,95217.70
2018-10-07T11:34:14.111Z,95224.17
2018-10-07T11:37:01.139Z,95223.23
2018-10-07T11:40:13.229Z,95229.25
2018-10-07T11:42:52.252Z,95232.22
2018-10-07T11:45:31.475Z,95227.00
2018-10-07T11:48:19.854Z,95231.30
2018-10-07T11:51:35.409Z,95233.21
2018-10-07T11:54:09.537Z,95229.31
2018-10-07T11:56:40.138Z,95231.97
2018-10-07T11:59:10.371Z,95228.67
2018-10-07T12:01:40.696Z,95228.33
2018-10-07T12:04:10.968Z,95227.66
2018-10-07T12:06:41.243Z,95225.58
2018-10-07T12:09:11.466Z,95225.11
2018-10-07T12:11:41.633Z,95227.20
2018-10-07T12:14:11.887Z,95229.64
2018-10-07T12:16:42.215Z,95228.95
2018-10-07T12:19:12.435Z,95229.94
2018-10-07T12:21:42.692Z,95234.43
2018-10-07T12:24:12.962Z,95229.11
2018-10-07T12:26:43.262Z,95240.95
2018-10-07T12:29:13.528Z,95235.30
2018-10-07T12:31:43.798Z,95242.04
2018-10-07T12:34:14.212Z,95242.14
2018-10-07T12:36:44.591Z,95246.13
2018-10-07T12:39:14.826Z,95242.52
2018-10-07T12:41:45.082Z,95242.23
2018-10-07T12:44:15.368Z,95248.27
2018-10-07T12:46:45.601Z,95245.46
2018-10-07T12:49:16.325Z,95239.25
2018-10-07T12:51:46.536Z,95242.27
2018-10-07T12:54:16.800Z,95246.09
2018-10-07T12:56:47.022Z,95249.70
2018-10-07T12:59:17.273Z,95258.19
2018-10-07T13:01:47.582Z,95252.53
2018-10-07T13:04:17.865Z,95244.42
2018-10-07T13:06:48.127Z,95248.86
2018-10-07T13:09:18.318Z,95249.50
2018-10-07T13:11:48.568Z,95251.25
2018-10-07T13:14:18.794Z,95254.06
2018-10-07T13:16:49.033Z,95257.04
2018-10-07T13:19:19.336Z,95260.21
2018-10-07T13:21:49.613Z,95251.57
2018-10-07T13:24:19.825Z,95253.81
2018-10-07T13:26:50.136Z,95253.66
2018-10-07T13:29:20.320Z,95251.25
2018-10-07T13:31:50.565Z,95255.14
2018-10-07T13:34:20.772Z,95254.28
2018-10-07T13:36:51.010Z,95260.54
2018-10-07T13:39:21.296Z,95260.64
2018-10-07T13:41:51.519Z,95262.89
2018-10-07T13:44:21.934Z,95267.63
2018-10-07T13:46:52.120Z,95266.91
2018-10-07T13:49:22.390Z,95271.25
2018-10-07T13:51:52.726Z,95274.05
2018-10-07T13:54:23.120Z,95270.42
2018-10-07T13:56:53.398Z,95281.42
2018-10-07T13:59:23.608Z,95279.31
2018-10-07T14:01:53.917Z,95282.55
2018-10-07T14:04:24.226Z,95283.83
2018-10-07T14:06:54.429Z,95285.48
2018-10-07T14:09:24.781Z,95280.70
2018-10-07T14:11:54.984Z,95285.84
2018-10-07T14:14:25.305Z,95286.88
2018-10-07T14:16:55.518Z,95283.75
2018-10-07T14:19:25.810Z,95282.39
2018-10-07T14:21:56.042Z,95288.82
2018-10-07T14:24:26.336Z,95284.13
2018-10-07T14:26:56.510Z,95282.21
2018-10-07T14:29:26.726Z,95281.61
2018-10-07T14:31:57.014Z,95289.69
2018-10-07T14:34:27.254Z,95286.19
2018-10-07T14:36:57.508Z,95287.52
2018-10-07T14:39:27.730Z,95279.98
2018-10-07T14:41:57.944Z,95280.47
2018-10-07T14:44:28.181Z,95288.16
2018-10-07T14:46:58.341Z,95281.14
2018-10-07T14:49:28.608Z,95277.64
2018-10-07T14:51:58.870Z,95280.47
2018-10-07T14:54:29.127Z,95284.95
2018-10-07T14:56:59.468Z,95289.30
2018-10-07T14:59:29.765Z,95285.39
2018-10-07T15:02:00.006Z,95294.08
2018-10-07T15:04:30.210Z,95293.03
2018-10-07T15:07:00.409Z,95297.16
2018-10-07T15:09:30.702Z,95302.06
2018-10-07T15:12:00.952Z,95298.00
2018-10-07T15:14:31.215Z,95303.17
2018-10-07T15:17:01.522Z,95300.34
2018-10-07T15:19:31.906Z,95306.70
2018-10-07T15:22:02.136Z,95297.98
2018-10-07T15:24:32.418Z,95301.38
2018-10-07T15:27:02.651Z,95304.99
2018-10-07T15:29:33.073Z,95303.67
2018-10-07T15:32:03.371Z,95305.74
2018-10-07T15:34:33.655Z,95312.79
2018-10-07T15:37:04.077Z,95308.72
2018-10-07T15:39:34.416Z,95307.70
2018-10-07T15:42:04.660Z,95317.87
2018-10-07T15:44:34.855Z,95318.06
2018-10-07T15:47:05.517Z,95323.03
2018-10-07T15:49:35.846Z,95326.86
2018-10-07T15:52:06.212Z,95325.78
2018-10-07T15:54:36.620Z,95324.16
2018-10-07T15:57:07.001Z,95329.55
2018-10-07T15:59:37.295Z,95331.20
2018-10-07T16:02:07.571Z,95330.26
2018-10-07T16:04:37.771Z,95333.58
2018-10-07T16:07:07.953Z,95337.83
2018-10-07T16:09:38.465Z,95347.81
2018-10-07T16:12:08.980Z,95349.20
2018-10-07T16:14:39.214Z,95354.84
2018-10-07T16:17:09.494Z,95350.80
2018-10-07T16:19:39.767Z,95356.12
2018-10-07T16:22:10.004Z,95357.69
2018-10-07T16:24:43.199Z,95364.09
2018-10-07T16:27:13.508Z,95367.30
2018-10-07T16:29:43.749Z,95373.52
2018-10-07T16:32:14.138Z,95378.52
2018-10-07T16:34:44.269Z,95377.81
2018-10-07T16:37:14.505Z,95384.77
2018-10-07T16:39:44.737Z,95386.78
2018-10-07T16:42:15.027Z,95388.90
2018-10-07T16:44:45.287Z,95391.13
2018-10-07T16:47:15.519Z,95389.78
2018-10-07T16:49:45.785Z,95397.23
2018-10-07T16:52:15.990Z,95395.38
2018-10-07T16:54:46.295Z,95396.88
2018-10-07T16:57:16.499Z,95400.52
2018-10-07T16:59:46.740Z,95399.56
2018-10-07T17:02:16.913Z,95399.98
2018-10-07T17:04:47.209Z,95405.14
2018-10-07T17:07:17.365Z,95411.83
2018-10-07T17:09:47.609Z,95414.02
2018-10-07T17:12:17.859Z,95417.70
2018-10-07T17:14:48.073Z,95419.02
2018-10-07T17:17:18.279Z,95414.93
2018-10-07T17:19:48.475Z,95416.19
2018-10-07T17:22:18.729Z,95422.70
2018-10-07T17:24:49.013Z,95420.65
2018-10-07T17:27:19.215Z,95425.37
2018-10-07T17:29:49.517Z,95431.00
2018-10-07T17:32:19.806Z,95438.13
2018-10-07T17:34:50.044Z,95437.05
2018-10-07T17:37:20.297Z,95439.58
2018-10-07T17:39:50.599Z,95438.48
2018-10-07T17:42:20.812Z,95432.41
2018-10-07T17:44:51.067Z,95437.66
2018-10-07T17:47:21.311Z,95445.05
2018-10-07T17:49:51.540Z,95449.76
2018-10-07T17:52:21.790Z,95453.53
2018-10-07T17:54:52.105Z,95455.98
2018-10-07T17:57:22.295Z,95458.82
2018-10-07T17:59:52.537Z,95463.28
2018-10-07T18:02:22.759Z,95470.55
2018-10-07T18:04:52.994Z,95472.76
2018-10-07T18:07:23.409Z,95481.30
2018-10-07T18:09:53.653Z,95482.78
2018-10-07T18:12:24.051Z,95485.09
2018-10-07T18:14:54.323Z,95488.55
2018-10-07T18:17:24.601Z,95488.41
2018-10-07T18:19:54.943Z,95491.11
2018-10-07T18:22:25.195Z,95488.64
2018-10-07T18:24:55.500Z,95487.53
2018-10-07T18:27:25.656Z,95495.59
2018-10-07T18:29:55.880Z,95490.36
2018-10-07T18:32:26.101Z,95489.91
2018-10-07T18:34:56.249Z,95491.21
2018-10-07T18:37:26.483Z,95496.64
2018-10-07T18:39:56.796Z,95493.42
2018-10-07T18:42:26.946Z,95489.79
2018-10-07T18:44:57.179Z,95500.95
2018-10-07T18:47:27.418Z,95500.62
2018-10-07T18:49:57.583Z,95502.74
2018-10-07T18:52:28.943Z,95502.42
2018-10-07T18:54:59.083Z,95507.67
2018-10-07T18:57:29.203Z,95512.26
2018-10-07T19:00:00.315Z,95513.61
2018-10-07T19:02:30.723Z,95520.83
2018-10-07T19:05:00.812Z,95514.58
2018-10-07T19:07:31.012Z,95523.58
2018-10-07T19:10:01.172Z,95527.55
2018-10-07T19:12:31.439Z,95529.98
2018-10-07T19:15:01.693Z,95533.43
2018-10-07T19:17:31.802Z,95532.44
2018-10-07T19:20:01.965Z,95537.39
2018-10-07T19:22:32.262Z,95534.73
2018-10-07T19:25:02.475Z,95535.41
2018-10-07T19:27:32.627Z,95537.02
2018-10-07T19:30:02.820Z,95541.78
2018-10-07T19:32:32.976Z,95546.69
2018-10-07T19:35:03.096Z,95552.25
2018-10-07T19:37:33.369Z,95550.78
2018-10-07T19:40:03.547Z,95551.45
2018-10-07T19:42:33.736Z,95552.91
2018-10-07T19:45:04.064Z,95549.15
2018-10-07T19:47:34.326Z,95555.48
2018-10-07T19:50:04.655Z,95556.79
2018-10-07T19:52:34.904Z,95561.52
2018-10-07T19:55:05.212Z,95555.92
2018-10-07T19:57:35.457Z,95556.39
2018-10-07T20:00:05.814Z,95554.93
2018-10-07T20:02:35.994Z,95560.76
2018-10-07T20:05:06.372Z,95560.80
2018-10-07T20:07:36.617Z,95562.11
2018-10-07T20:10:06.839Z,95570.13
2018-10-07T20:12:37.023Z,95564.05
2018-10-07T20:15:07.325Z,95564.69
2018-10-07T20:17:37.520Z,95568.30
2018-10-07T20:20:07.849Z,95569.30
2018-10-07T20:22:38.029Z,95570.59
2018-10-07T20:25:08.270Z,95574.53
2018-10-07T20:27:38.506Z,95571.23
2018-10-07T20:30:08.759Z,95574.84
2018-10-07T20:32:38.960Z,95579.72
2018-10-07T20:35:09.266Z,95577.94
2018-10-07T20:37:39.503Z,95578.04
2018-10-07T20:40:09.765Z,95580.55
2018-10-07T20:42:39.921Z,95585.73
2018-10-07T20:45:10.140Z,95589.63
2018-10-07T20:47:40.368Z,95592.25
2018-10-07T20:50:10.588Z,95595.33
2018-10-07T20:52:40.811Z,95598.42
2018-10-07T20:55:10.986Z,95601.66
2018-10-07T20:57:41.210Z,95601.50
2018-10-07T21:00:11.421Z,95600.82
2018-10-07T21:02:41.652Z,95600.19
2018-10-07T21:05:11.840Z,95600.33
2018-10-07T21:07:42.034Z,95602.84
2018-10-07T21:10:12.261Z,95599.05
2018-10-07T21:12:49.019Z,95599.48
2018-10-07T21:15:19.273Z,95605.09
2018-10-07T21:17:49.571Z,95605.88
2018-10-07T21:20:19.779Z,95608.02
2018-10-07T21:22:50.025Z,95615.20
2018-10-07T21:25:20.339Z,95618.50
2018-10-07T21:27:50.577Z,95612.79
2018-10-07T21:30:20.808Z,95617.36
2018-10-07T21:32:50.978Z,95622.94
2018-10-07T21:35:21.206Z,95624.70
2018-10-07T21:37:51.393Z,95625.15
2018-10-07T21:40:21.650Z,95632.52
2018-10-07T21:42:51.849Z,95631.78
2018-10-07T21:45:22.106Z,95628.03
2018-10-07T21:47:52.277Z,95632.34
2018-10-07T21:50:22.462Z,95634.42
2018-10-07T21:52:52.689Z,95631.52
2018-10-07T21:55:22.868Z,95635.45
2018-10-07T21:57:53.043Z,95634.84
2018-10-07T22:00:23.267Z,95632.50
2018-10-07T22:02:53.430Z,95631.70
2018-10-07T22:05:23.665Z,95631.95
2018-10-07T22:07:53.873Z,95633.37
2018-10-07T22:10:24.079Z,95632.14
2018-10-07T22:12:54.253Z,95628.84
2018-10-07T22:15:24.489Z,95628.29
2018-10-07T22:17:54.661Z,95623.51
2018-10-07T22:20:24.859Z,95636.60
2018-10-07T22:22:55.049Z,95633.55
2018-10-07T22:25:25.269Z,95635.88
2018-10-07T22:27:55.463Z,95634.28
2018-10-07T22:30:27.088Z,95638.89
2018-10-07T22:32:57.271Z,95642.33
2018-10-07T22:35:27.499Z,95638.16
2018-10-07T22:37:57.712Z,95642.62
2018-10-07T22:40:27.873Z,95635.83
2018-10-07T22:42:58.099Z,95644.14
2018-10-07T22:45:28.295Z,95645.30
2018-10-07T22:47:58.459Z,95644.25
2018-10-07T22:50:28.640Z,95645.92
2018-10-07T22:52:58.844Z,95642.12
2018-10-07T22:55:29.011Z,95644.58
2018-10-07T22:57:59.181Z,95644.98
2018-10-07T23:00:29.389Z,95639.43
2018-10-07T23:02:59.527Z,95648.13
2018-10-07T23:05:29.701Z,95649.07
2018-10-07T23:07:59.894Z,95653.79
2018-10-07T23:10:30.059Z,95654.44
2018-10-07T23:13:00.307Z,95653.23
2018-10-07T23:15:30.463Z,95643.25
2018-10-07T23:18:00.658Z,95645.61
2018-10-07T23:20:30.845Z,95641.34
2018-10-07T23:23:01.079Z,95640.72
2018-10-07T23:25:31.285Z,95637.91
2018-10-07T23:28:01.475Z,95639.91
2018-10-07T23:30:31.693Z,95639.07
2018-10-07T23:33:01.884Z,95643.73
2018-10-07T23:35:32.067Z,95651.63
2018-10-07T23:38:02.250Z,95644.37
2018-10-07T23:40:32.446Z,95648.87
2018-10-07T23:43:02.620Z,95644.91
2018-10-07T23:45:32.814Z,95648.96
2018-10-07T23:48:02.960Z,95644.53
2018-10-07T23:50:33.090Z,95641.43
2018-10-07T23:53:03.292Z,95638.72
2018-10-07T23:55:33.470Z,95646.03
2018-10-07T23:58:03.660Z,95641.41
